sensor_id;sensor_type;location;lat;lon;timestamp;P1;durP1;ratioP1;P2;durP2;ratioP2
10588;SDS011;5342;55.676;13.346;2022-12-18T00:02:59;20.10;;;11.30;;
10588;SDS011;5342;55.676;13.346;2022-12-18T00:05:26;15.45;;;10.32;;
10588;SDS011;5342;55.676;13.346;2022-12-18T00:07:52;15.40;;;9.52;;
10588;SDS011;5342;55.676;13.346;2022-12-18T00:10:19;12.40;;;9.18;;
10588;SDS011;5342;55.676;13.346;2022-12-18T00:12:45;14.00;;;9.60;;
10588;SDS011;5342;55.676;13.346;2022-12-18T03:28:19;10.43;;;6.43;;
10588;SDS011;5342;55.676;13.346;2022-12-18T03:30:46;9.05;;;5.32;;
10588;SDS011;5342;55.676;13.346;2022-12-18T03:35:45;13.30;;;6.20;;
10588;SDS011;5342;55.676;13.346;2022-12-18T03:38:11;10.63;;;5.97;;
10588;SDS011;5342;55.676;13.346;2022-12-18T03:43:23;8.00;;;5.60;;
10588;SDS011;5342;55.676;13.346;2022-12-18T03:45:53;9.77;;;5.70;;
10588;SDS011;5342;55.676;13.346;2022-12-18T03:55:52;8.77;;;5.97;;
10588;SDS011;5342;55.676;13.346;2022-12-18T03:58:23;11.02;;;7.45;;
10588;SDS011;5342;55.676;13.346;2022-12-18T04:03:16;7.95;;;6.40;;
10588;SDS011;5342;55.676;13.346;2022-12-18T04:05:46;12.77;;;6.88;;
10588;SDS011;5342;55.676;13.346;2022-12-18T04:08:14;7.15;;;5.25;;
10588;SDS011;5342;55.676;13.346;2022-12-18T04:10:41;8.60;;;5.38;;
10588;SDS011;5342;55.676;13.346;2022-12-18T04:13:08;10.52;;;6.05;;
10588;SDS011;5342;55.676;13.346;2022-12-18T04:15:35;7.93;;;5.47;;
10588;SDS011;5342;55.676;13.346;2022-12-18T04:18:03;9.48;;;5.38;;
10588;SDS011;5342;55.676;13.346;2022-12-18T04:20:29;8.77;;;5.32;;
10588;SDS011;5342;55.676;13.346;2022-12-18T04:22:56;8.50;;;5.80;;
10588;SDS011;5342;55.676;13.346;2022-12-18T04:25:22;11.48;;;5.50;;
10588;SDS011;5342;55.676;13.346;2022-12-18T04:27:49;9.95;;;5.82;;
10588;SDS011;5342;55.676;13.346;2022-12-18T04:30:15;11.40;;;5.38;;
10588;SDS011;5342;55.676;13.346;2022-12-18T04:32:42;8.13;;;5.65;;
10588;SDS011;5342;55.676;13.346;2022-12-18T04:35:08;10.48;;;5.68;;
10588;SDS011;5342;55.676;13.346;2022-12-18T04:37:36;7.32;;;5.47;;
10588;SDS011;5342;55.676;13.346;2022-12-18T04:40:04;7.50;;;4.47;;
10588;SDS011;5342;55.676;13.346;2022-12-18T04:42:30;10.98;;;5.47;;
10588;SDS011;5342;55.676;13.346;2022-12-18T04:44:57;7.53;;;5.00;;
10588;SDS011;5342;55.676;13.346;2022-12-18T04:47:23;8.85;;;5.47;;
10588;SDS011;5342;55.676;13.346;2022-12-18T04:49:50;8.50;;;5.75;;
10588;SDS011;5342;55.676;13.346;2022-12-18T04:52:16;8.63;;;5.00;;
10588;SDS011;5342;55.676;13.346;2022-12-18T04:54:43;8.50;;;5.25;;
10588;SDS011;5342;55.676;13.346;2022-12-18T04:57:09;6.75;;;5.40;;
10588;SDS011;5342;55.676;13.346;2022-12-18T04:59:36;8.63;;;5.07;;
10588;SDS011;5342;55.676;13.346;2022-12-18T05:02:02;8.50;;;4.72;;
10588;SDS011;5342;55.676;13.346;2022-12-18T05:04:29;9.77;;;5.50;;
10588;SDS011;5342;55.676;13.346;2022-12-18T05:06:55;10.13;;;5.40;;
10588;SDS011;5342;55.676;13.346;2022-12-18T05:09:22;8.27;;;5.60;;
10588;SDS011;5342;55.676;13.346;2022-12-18T05:11:49;8.65;;;5.32;;
10588;SDS011;5342;55.676;13.346;2022-12-18T05:14:15;9.60;;;5.57;;
10588;SDS011;5342;55.676;13.346;2022-12-18T05:16:42;9.32;;;6.05;;
10588;SDS011;5342;55.676;13.346;2022-12-18T05:19:08;12.35;;;6.55;;
10588;SDS011;5342;55.676;13.346;2022-12-18T05:21:35;10.57;;;6.03;;
10588;SDS011;5342;55.676;13.346;2022-12-18T05:24:01;12.18;;;6.28;;
10588;SDS011;5342;55.676;13.346;2022-12-18T05:26:28;10.60;;;5.45;;
10588;SDS011;5342;55.676;13.346;2022-12-18T05:31:21;10.75;;;6.28;;
10588;SDS011;5342;55.676;13.346;2022-12-18T05:33:48;11.88;;;6.47;;
10588;SDS011;5342;55.676;13.346;2022-12-18T05:36:14;10.90;;;6.25;;
10588;SDS011;5342;55.676;13.346;2022-12-18T05:38:41;10.68;;;6.03;;
10588;SDS011;5342;55.676;13.346;2022-12-18T05:41:07;11.75;;;6.55;;
10588;SDS011;5342;55.676;13.346;2022-12-18T05:50:53;11.75;;;6.55;;
10588;SDS011;5342;55.676;13.346;2022-12-18T05:53:20;10.68;;;6.80;;
10588;SDS011;5342;55.676;13.346;2022-12-18T05:55:47;9.77;;;6.25;;
10588;SDS011;5342;55.676;13.346;2022-12-18T05:58:14;9.43;;;5.80;;
10588;SDS011;5342;55.676;13.346;2022-12-18T06:00:42;10.13;;;5.23;;
10588;SDS011;5342;55.676;13.346;2022-12-18T06:03:09;12.57;;;6.28;;
10588;SDS011;5342;55.676;13.346;2022-12-18T06:05:36;10.80;;;6.00;;
10588;SDS011;5342;55.676;13.346;2022-12-18T06:08:03;12.83;;;6.93;;
10588;SDS011;5342;55.676;13.346;2022-12-18T06:10:30;10.60;;;5.63;;
10588;SDS011;5342;55.676;13.346;2022-12-18T06:12:56;10.15;;;6.47;;
10588;SDS011;5342;55.676;13.346;2022-12-18T06:15:23;10.48;;;6.03;;
10588;SDS011;5342;55.676;13.346;2022-12-18T06:17:50;11.10;;;7.00;;
10588;SDS011;5342;55.676;13.346;2022-12-18T06:20:16;12.80;;;6.47;;
10588;SDS011;5342;55.676;13.346;2022-12-18T06:22:43;9.82;;;5.50;;
10588;SDS011;5342;55.676;13.346;2022-12-18T06:25:09;13.23;;;7.45;;
10588;SDS011;5342;55.676;13.346;2022-12-18T06:27:36;10.50;;;6.90;;
10588;SDS011;5342;55.676;13.346;2022-12-18T06:30:03;13.95;;;6.85;;
10588;SDS011;5342;55.676;13.346;2022-12-18T06:32:29;11.95;;;6.50;;
10588;SDS011;5342;55.676;13.346;2022-12-18T06:34:56;10.23;;;5.85;;
10588;SDS011;5342;55.676;13.346;2022-12-18T06:37:22;10.10;;;6.07;;
10588;SDS011;5342;55.676;13.346;2022-12-18T06:39:52;10.07;;;6.47;;
10588;SDS011;5342;55.676;13.346;2022-12-18T06:42:19;10.20;;;6.70;;
10588;SDS011;5342;55.676;13.346;2022-12-18T06:44:45;12.48;;;6.38;;
10588;SDS011;5342;55.676;13.346;2022-12-18T06:47:12;8.30;;;6.50;;
10588;SDS011;5342;55.676;13.346;2022-12-18T06:49:38;12.43;;;6.60;;
10588;SDS011;5342;55.676;13.346;2022-12-18T06:52:05;10.55;;;6.97;;
10588;SDS011;5342;55.676;13.346;2022-12-18T06:54:31;11.70;;;6.32;;
10588;SDS011;5342;55.676;13.346;2022-12-18T06:56:58;10.55;;;6.47;;
10588;SDS011;5342;55.676;13.346;2022-12-18T06:59:24;11.10;;;6.57;;
10588;SDS011;5342;55.676;13.346;2022-12-18T07:01:51;15.20;;;6.53;;
10588;SDS011;5342;55.676;13.346;2022-12-18T07:04:17;12.98;;;6.95;;
10588;SDS011;5342;55.676;13.346;2022-12-18T07:06:44;11.98;;;6.75;;
10588;SDS011;5342;55.676;13.346;2022-12-18T07:09:10;16.20;;;7.75;;
10588;SDS011;5342;55.676;13.346;2022-12-18T07:14:03;10.45;;;6.65;;
10588;SDS011;5342;55.676;13.346;2022-12-18T07:21:23;11.95;;;7.10;;
10588;SDS011;5342;55.676;13.346;2022-12-18T07:26:17;12.18;;;6.85;;
10588;SDS011;5342;55.676;13.346;2022-12-18T07:28:44;11.82;;;6.65;;
10588;SDS011;5342;55.676;13.346;2022-12-18T07:31:11;11.23;;;6.82;;
10588;SDS011;5342;55.676;13.346;2022-12-18T07:33:38;14.18;;;7.95;;
10588;SDS011;5342;55.676;13.346;2022-12-18T07:36:05;12.48;;;7.45;;
10588;SDS011;5342;55.676;13.346;2022-12-18T07:38:32;15.75;;;8.13;;
10588;SDS011;5342;55.676;13.346;2022-12-18T07:41:06;11.23;;;6.80;;
10588;SDS011;5342;55.676;13.346;2022-12-18T07:43:33;15.85;;;7.15;;
10588;SDS011;5342;55.676;13.346;2022-12-18T07:46:00;12.43;;;7.72;;
10588;SDS011;5342;55.676;13.346;2022-12-18T07:48:27;12.80;;;8.77;;
10588;SDS011;5342;55.676;13.346;2022-12-18T07:50:57;14.52;;;7.95;;
10588;SDS011;5342;55.676;13.346;2022-12-18T07:53:24;11.20;;;6.63;;
10588;SDS011;5342;55.676;13.346;2022-12-18T07:55:54;11.20;;;7.57;;
10588;SDS011;5342;55.676;13.346;2022-12-18T07:58:21;14.13;;;7.20;;
10588;SDS011;5342;55.676;13.346;2022-12-18T08:03:14;10.45;;;6.60;;
10588;SDS011;5342;55.676;13.346;2022-12-18T08:05:40;14.48;;;6.45;;
10588;SDS011;5342;55.676;13.346;2022-12-18T08:08:07;11.77;;;7.17;;
10588;SDS011;5342;55.676;13.346;2022-12-18T08:10:33;12.70;;;6.43;;
10588;SDS011;5342;55.676;13.346;2022-12-18T08:13:00;13.17;;;6.87;;
10588;SDS011;5342;55.676;13.346;2022-12-18T08:15:26;11.63;;;6.87;;
10588;SDS011;5342;55.676;13.346;2022-12-18T08:17:55;10.67;;;7.33;;
10588;SDS011;5342;55.676;13.346;2022-12-18T08:20:22;10.33;;;6.73;;
10588;SDS011;5342;55.676;13.346;2022-12-18T13:19:23;6.87;;;4.63;;
10588;SDS011;5342;55.676;13.346;2022-12-18T13:21:55;7.33;;;5.13;;
10588;SDS011;5342;55.676;13.346;2022-12-18T13:24:26;9.10;;;5.97;;
10588;SDS011;5342;55.676;13.346;2022-12-18T13:26:53;7.63;;;5.33;;
10588;SDS011;5342;55.676;13.346;2022-12-18T13:32:25;8.30;;;5.40;;
10588;SDS011;5342;55.676;13.346;2022-12-18T13:37:41;8.43;;;4.23;;
10588;SDS011;5342;55.676;13.346;2022-12-18T13:42:53;8.07;;;4.20;;
10588;SDS011;5342;55.676;13.346;2022-12-18T13:45:43;7.83;;;5.70;;
10588;SDS011;5342;55.676;13.346;2022-12-18T13:48:14;10.37;;;5.90;;
10588;SDS011;5342;55.676;13.346;2022-12-18T13:50:41;11.60;;;6.47;;
10588;SDS011;5342;55.676;13.346;2022-12-18T13:53:13;9.43;;;5.37;;
10588;SDS011;5342;55.676;13.346;2022-12-18T13:55:44;8.30;;;4.20;;
10588;SDS011;5342;55.676;13.346;2022-12-18T13:58:11;6.53;;;4.20;;
10588;SDS011;5342;55.676;13.346;2022-12-18T14:00:41;8.30;;;4.07;;
10588;SDS011;5342;55.676;13.346;2022-12-18T14:03:16;6.57;;;4.13;;
10588;SDS011;5342;55.676;13.346;2022-12-18T14:05:43;31.93;;;17.20;;
10588;SDS011;5342;55.676;13.346;2022-12-18T14:08:14;26.07;;;14.23;;
10588;SDS011;5342;55.676;13.346;2022-12-18T14:10:41;25.47;;;15.93;;
10588;SDS011;5342;55.676;13.346;2022-12-18T14:13:09;25.90;;;15.27;;
10588;SDS011;5342;55.676;13.346;2022-12-18T14:15:39;17.73;;;9.33;;
10588;SDS011;5342;55.676;13.346;2022-12-18T14:18:25;10.07;;;5.77;;
10588;SDS011;5342;55.676;13.346;2022-12-18T14:20:59;17.13;;;9.97;;
10588;SDS011;5342;55.676;13.346;2022-12-18T14:26:00;7.93;;;4.53;;
10588;SDS011;5342;55.676;13.346;2022-12-18T14:28:27;7.00;;;4.60;;
10588;SDS011;5342;55.676;13.346;2022-12-18T14:30:54;12.67;;;5.87;;
10588;SDS011;5342;55.676;13.346;2022-12-18T14:33:22;9.53;;;6.17;;
10588;SDS011;5342;55.676;13.346;2022-12-18T14:35:56;13.20;;;6.20;;
10588;SDS011;5342;55.676;13.346;2022-12-18T14:38:33;8.73;;;5.30;;
10588;SDS011;5342;55.676;13.346;2022-12-18T14:41:01;9.47;;;4.73;;
10588;SDS011;5342;55.676;13.346;2022-12-18T14:43:29;13.60;;;7.60;;
10588;SDS011;5342;55.676;13.346;2022-12-18T14:45:56;6.10;;;4.30;;
10588;SDS011;5342;55.676;13.346;2022-12-18T14:48:30;7.67;;;4.63;;
10588;SDS011;5342;55.676;13.346;2022-12-18T14:53:32;7.83;;;4.57;;
10588;SDS011;5342;55.676;13.346;2022-12-18T14:55:59;6.40;;;4.20;;
10588;SDS011;5342;55.676;13.346;2022-12-18T14:58:26;8.67;;;5.33;;
10588;SDS011;5342;55.676;13.346;2022-12-18T15:00:52;6.77;;;4.63;;
10588;SDS011;5342;55.676;13.346;2022-12-18T15:03:20;7.67;;;5.27;;
10588;SDS011;5342;55.676;13.346;2022-12-18T15:05:47;6.87;;;4.73;;
10588;SDS011;5342;55.676;13.346;2022-12-18T15:08:24;7.70;;;5.27;;
10588;SDS011;5342;55.676;13.346;2022-12-18T15:10:53;8.40;;;5.20;;
